Time;durP1;ratioP1;P1;durP2;ratioP2;P2;SDS_P1;SDS_P2;PMS_P1;PMS_P2;Temp;Humidity;BMP_temperature;BMP_pressure;BME280_temperature;BME280_humidity;BME280_pressure;Samples;Min_cycle;Max_cycle;Signal;HPM_P1;HPM_P2
2021/09/23 00:02:16;;;;;;;2.30;1.90;;;;;;;18.91;69.98;101048.97;4986615;28;102397;-51
2021/09/23 00:04:44;;;;;;;2.70;2.50;;;;;;;18.91;70.08;101053.66;4987632;28;102185;-48
2021/09/23 00:07:10;;;;;;;2.53;2.22;;;;;;;18.90;69.98;101047.34;4981310;28;103907;-50
2021/09/23 00:09:37;;;;;;;2.50;2.30;;;;;;;18.91;69.90;101059.19;4985904;28;102406;-48
2021/09/23 00:12:08;;;;;;;2.10;1.90;;;;;;;18.90;70.08;101052.84;4985667;28;102266;-49
2021/09/23 00:14:34;;;;;;;2.67;2.40;;;;;;;18.90;70.20;101058.38;4989347;28;102610;-49
2021/09/23 00:17:03;;;;;;;2.53;2.33;;;;;;;18.90;70.49;101063.88;4985791;28;103773;-48
2021/09/23 00:19:29;;;;;;;2.42;2.15;;;;;;;18.90;70.13;101058.38;4988937;28;102467;-49
2021/09/23 00:21:58;;;;;;;2.10;1.90;;;;;;;18.90;70.34;101058.38;4970487;28;102404;-49
2021/09/23 00:24:26;;;;;;;2.40;2.20;;;;;;;18.91;70.29;101062.75;4979916;28;102741;-49
2021/09/23 00:26:53;;;;;;;3.05;2.47;;;;;;;18.90;70.05;101052.84;4985496;28;102579;-48
2021/09/23 00:29:19;;;;;;;2.35;2.13;;;;;;;18.90;70.48;101052.06;4985379;28;103102;-48
2021/09/23 00:31:46;;;;;;;2.20;1.95;;;;;;;18.90;70.36;101050.09;4980187;28;102435;-48
2021/09/23 00:34:14;;;;;;;2.50;2.17;;;;;;;18.90;70.42;101052.06;4996228;28;102797;-50
2021/09/23 00:36:40;;;;;;;29.73;2.60;;;;;;;18.90;70.33;101052.84;4982092;28;103961;-47
2021/09/23 00:39:07;;;;;;;2.45;2.25;;;;;;;18.89;70.10;101051.22;4977349;28;102490;-48
2021/09/23 00:41:34;;;;;;;2.50;2.30;;;;;;;18.90;70.36;101058.38;4980501;28;102512;-48
2021/09/23 00:44:12;;;;;;;2.28;2.08;;;;;;;18.90;70.27;101052.84;4978962;28;102605;-48
2021/09/23 00:46:39;;;;;;;;;;;;;;;18.90;70.22;101052.06;4976501;28;104227;-50
2021/09/23 00:49:06;;;;;;;2.65;2.45;;;;;;;18.89;70.47;101051.22;4980348;28;102308;-48
2021/09/23 00:51:33;;;;;;;2.03;1.85;;;;;;;18.90;70.14;101052.06;4983968;28;102505;-47
2021/09/23 00:54:02;;;;;;;2.50;2.13;;;;;;;18.89;70.15;101056.72;4978076;28;102871;-49
2021/09/23 00:56:30;;;;;;;2.50;2.30;;;;;;;18.89;70.33;101056.72;4986672;28;103530;-48
2021/09/23 00:58:57;;;;;;;2.47;2.28;;;;;;;18.89;70.11;101053.16;4982069;28;102528;-48
2021/09/23 01:01:25;;;;;;;;;;;;;;;18.89;70.10;101050.41;4980901;28;102676;-48
2021/09/23 01:03:53;;;;;;;9.82;2.50;;;;;;;18.88;69.95;101052.34;4984587;28;102318;-49
2021/09/23 01:06:20;;;;;;;2.45;2.25;;;;;;;18.89;70.13;101056.72;4978469;28;104090;-48
2021/09/23 01:08:54;;;;;;;2.40;2.03;;;;;;;18.89;70.68;101062.25;4977422;28;102717;-47
2021/09/23 01:11:21;;;;;;;3.10;2.63;;;;;;;18.89;69.83;101059.47;4977278;28;102427;-51
2021/09/23 01:13:48;;;;;;;2.10;1.92;;;;;;;18.88;70.38;101055.09;4986654;28;102572;-49
2021/09/23 01:16:15;;;;;;;2.53;2.33;;;;;;;18.88;70.46;101055.09;4972619;28;103250;-48
2021/09/23 01:18:42;;;;;;;2.38;2.15;;;;;;;18.89;70.13;101055.91;4987135;28;102907;-48
2021/09/23 01:21:12;;;;;;;2.08;1.88;;;;;;;18.88;70.44;101049.59;4976568;28;102365;-50
2021/09/23 01:23:45;;;;;;;2.38;2.17;;;;;;;18.89;70.37;101055.91;4983573;28;102443;-51
2021/09/23 01:26:18;;;;;;;2.47;2.28;;;;;;;18.88;70.38;101049.59;4980388;28;104788;-48
2021/09/23 01:28:47;;;;;;;2.17;2.00;;;;;;;18.87;70.06;101053.50;4986845;28;102531;-49
2021/09/23 01:31:14;;;;;;;2.55;2.35;;;;;;;18.88;70.59;101048.78;4976223;28;102839;-49
2021/09/23 01:33:40;;;;;;;2.20;2.00;;;;;;;18.88;70.28;101044.06;4980334;28;102307;-48
2021/09/23 01:36:07;;;;;;;2.15;2.00;;;;;;;18.87;69.93;101053.50;4984659;28;104241;-48
2021/09/23 01:38:35;;;;;;;2.40;2.20;;;;;;;18.87;69.89;101049.94;4985453;28;103484;-48
2021/09/23 01:41:02;;;;;;;2.38;2.00;;;;;;;18.88;70.30;101043.28;4983150;28;102883;-50
2021/09/23 01:43:30;;;;;;;;;;;;;;;18.88;70.55;101043.28;4974307;28;102499;-51
2021/09/23 01:45:57;;;;;;;1.98;1.77;;;;;;;18.86;69.94;101046.34;4976256;28;103493;-49
2021/09/23 01:48:24;;;;;;;2.63;2.40;;;;;;;18.87;70.42;101049.94;4987152;28;102476;-48
2021/09/23 01:50:51;;;;;;;2.30;2.10;;;;;;;18.87;70.31;101047.97;4980543;28;102196;-47
2021/09/23 01:53:17;;;;;;;3.10;2.50;;;;;;;18.86;70.48;101046.34;4979700;28;102277;-49
2021/09/23 01:55:46;;;;;;;2.63;2.42;;;;;;;18.87;70.38;101041.66;4978414;28;104136;-48
2021/09/23 01:58:13;;;;;;;2.97;2.67;;;;;;;18.87;70.20;101042.47;4975948;28;102425;-47
2021/09/23 02:00:39;;;;;;;2.50;2.20;;;;;;;18.86;70.17;101045.53;4984625;28;102196;-48
2021/09/23 02:03:26;;;;;;;2.95;2.20;;;;;;;18.87;70.67;101038.91;4974368;28;102478;-48
2021/09/23 02:06:02;;;;;;;3.35;2.85;;;;;;;18.85;70.10;101033.69;4979513;28;103813;-48
2021/09/23 02:08:31;;;;;;;2.42;2.22;;;;;;;18.86;70.10;101032.56;4985127;28;102128;-48
2021/09/23 02:11:00;;;;;;;;;;;;;;;18.85;70.45;101044.72;4982120;28;102029;-48
2021/09/23 02:13:28;;;;;;;2.58;2.38;;;;;;;18.86;70.22;101038.09;4986127;28;102418;-48
2021/09/23 02:15:55;;;;;;;2.38;2.17;;;;;;;18.86;70.58;101040.84;4982636;28;104256;-50
2021/09/23 02:18:27;;;;;;;2.47;2.20;;;;;;;18.85;70.56;101041.94;4987781;28;102532;-48
2021/09/23 02:20:54;;;;;;;2.60;2.40;;;;;;;18.85;69.90;101044.72;4969944;28;102787;-49
2021/09/23 02:23:20;;;;;;;2.83;2.63;;;;;;;18.85;70.38;101044.72;4977541;28;102670;-47
2021/09/23 02:25:48;;;;;;;2.80;2.45;;;;;;;18.85;70.23;101047.47;4981725;28;103887;-48
2021/09/23 02:28:16;;;;;;;2.15;1.95;;;;;;;18.85;70.64;101047.47;4985488;28;102495;-48
2021/09/23 02:30:42;;;;;;;2.40;2.20;;;;;;;18.84;70.53;101048.59;4988108;28;102838;-50
2021/09/23 02:33:10;;;;;;;2.75;2.50;;;;;;;18.85;70.50;101043.91;4990555;28;102371;-48
2021/09/23 02:35:37;;;;;;;2.63;2.43;;;;;;;18.84;70.44;101037.56;4979044;28;103974;-48
2021/09/23 02:38:04;;;;;;;2.22;2.03;;;;;;;18.83;70.13;101038.72;4985424;28;102796;-47
2021/09/23 02:40:30;;;;;;;2.88;2.55;;;;;;;18.84;69.95;101032.06;4990263;28;102604;-48
2021/09/23 02:42:58;;;;;;;2.35;2.15;;;;;;;18.84;70.54;101036.78;4990676;28;102294;-47
2021/09/23 02:45:29;;;;;;;2.42;2.22;;;;;;;18.84;70.52;101037.56;4987071;28;104720;-48
2021/09/23 02:47:56;;;;;;;2.13;1.98;;;;;;;18.83;70.54;101033.19;4992132;28;102571;-48
2021/09/23 02:50:22;;;;;;;2.92;2.30;;;;;;;18.83;70.46;101030.44;4983316;28;102233;-48
2021/09/23 02:52:49;;;;;;;2.65;2.45;;;;;;;18.84;70.45;101032.06;4990990;28;102709;-47
2021/09/23 02:55:16;;;;;;;2.38;2.17;;;;;;;18.83;70.55;101024.94;4978951;28;102922;-47
2021/09/23 02:57:43;;;;;;;2.45;2.25;;;;;;;18.83;70.20;101024.94;4988324;28;102455;-49
2021/09/23 03:00:10;;;;;;;2.47;2.20;;;;;;;18.83;70.66;101024.94;4977270;28;102511;-48
2021/09/23 03:02:38;;;;;;;2.65;2.45;;;;;;;18.83;70.55;101030.44;4979379;28;102146;-47
2021/09/23 03:05:05;;;;;;;2.63;2.43;;;;;;;18.85;70.17;101032.88;4979263;28;103954;-48
2021/09/23 03:07:32;;;;;;;2.22;2.10;;;;;;;18.84;70.20;101034.00;4978824;28;102559;-47
2021/09/23 03:09:58;;;;;;;2.28;2.08;;;;;;;18.82;70.45;101028.81;4979479;28;102573;-49
2021/09/23 03:12:25;;;;;;;2.50;2.30;;;;;;;18.83;70.20;101033.19;4988642;28;102856;-51
2021/09/23 03:14:52;;;;;;;2.50;2.30;;;;;;;18.83;70.49;101024.13;4986393;28;103901;-48
2021/09/23 03:17:20;;;;;;;2.70;2.50;;;;;;;18.83;70.17;101029.63;4987635;28;102613;-48
2021/09/23 03:19:48;;;;;;;2.92;2.53;;;;;;;18.83;69.79;101032.41;4988956;28;102481;-47
2021/09/23 03:22:17;;;;;;;2.67;2.47;;;;;;;18.82;70.77;101034.31;4982163;28;102137;-47
2021/09/23 03:24:44;;;;;;;2.65;2.45;;;;;;;18.82;70.38;101037.06;4987416;28;104191;-48
2021/09/23 03:27:13;;;;;;;2.65;2.10;;;;;;;18.82;70.03;101045.34;4989681;28;102230;-48
2021/09/23 03:29:40;;;;;;;2.15;1.98;;;;;;;18.82;70.31;101039.81;4983795;28;102372;-48
2021/09/23 03:32:07;;;;;;;2.13;1.92;;;;;;;18.83;70.26;101040.66;4981410;28;102777;-47
2021/09/23 03:34:35;;;;;;;2.60;2.40;;;;;;;18.82;70.24;101039.81;4983888;28;104379;-48
2021/09/23 03:37:03;;;;;;;2.38;2.17;;;;;;;18.82;70.42;101039.81;4979591;28;102433;-47
2021/09/23 03:39:30;;;;;;;2.50;2.30;;;;;;;18.81;70.46;101031.88;4987253;28;102029;-48
2021/09/23 03:41:57;;;;;;;1.92;1.83;;;;;;;18.82;70.42;101039.81;4987052;28;102328;-48
2021/09/23 03:44:23;;;;;;;2.58;2.38;;;;;;;18.82;70.02;101045.34;4983379;28;102979;-47
2021/09/23 03:46:50;;;;;;;2.67;2.47;;;;;;;18.81;70.17;101040.97;4982256;28;102603;-48
2021/09/23 03:49:20;;;;;;;2.85;2.65;;;;;;;18.83;70.26;101046.19;4989544;28;102697;-49
2021/09/23 03:51:46;;;;;;;2.50;2.30;;;;;;;18.81;70.26;101043.72;4987178;28;102434;-48
2021/09/23 03:54:15;;;;;;;2.63;2.42;;;;;;;18.82;70.49;101050.84;4988726;28;103866;-48
2021/09/23 03:56:42;;;;;;;3.50;2.30;;;;;;;18.81;70.42;101049.25;4988853;28;102577;-51
2021/09/23 03:59:09;;;;;;;3.20;2.90;;;;;;;18.81;70.41;101040.16;4986979;28;102592;-48
2021/09/23 04:01:37;;;;;;;2.88;2.60;;;;;;;18.82;70.57;101050.06;4980401;28;103471;-47
2021/09/23 04:04:04;;;;;;;2.95;2.75;;;;;;;18.81;70.05;101053.94;4974097;28;104179;-49
2021/09/23 04:06:30;;;;;;;3.10;2.80;;;;;;;18.81;70.12;101049.25;4984717;28;102286;-48
2021/09/23 04:09:05;;;;;;;2.97;2.78;;;;;;;18.81;70.69;101053.94;4987803;28;102362;-48
2021/09/23 04:11:33;;;;;;;3.53;3.20;;;;;;;18.81;70.30;101062.22;4979024;28;102424;-48
2021/09/23 04:14:03;;;;;;;2.63;2.42;;;;;;;18.80;70.39;101052.34;4986993;28;104027;-48
2021/09/23 04:16:30;;;;;;;2.97;2.67;;;;;;;18.80;70.18;101058.66;4985859;28;102523;-47
2021/09/23 04:18:57;;;;;;;2.88;2.42;;;;;;;18.80;70.52;101058.66;4986999;28;102468;-47
2021/09/23 04:21:24;;;;;;;3.20;2.55;;;;;;;18.79;70.38;101068.06;4983440;28;105584;-47
2021/09/23 04:23:51;;;;;;;3.42;3.10;;;;;;;18.80;70.74;101069.69;5002132;28;103922;-48
2021/09/23 04:26:18;;;;;;;3.03;2.72;;;;;;;18.80;70.60;101069.69;4978802;28;102545;-50
2021/09/23 04:28:46;;;;;;;3.00;2.70;;;;;;;18.79;70.58;101068.06;4980603;28;102722;-49
2021/09/23 04:31:12;;;;;;;2.53;2.33;;;;;;;18.80;70.24;101069.69;4982767;28;102306;-50
2021/09/23 04:33:40;;;;;;;2.80;2.60;;;;;;;18.79;70.47;101073.59;4985143;28;103816;-48
2021/09/23 04:36:07;;;;;;;2.75;2.53;;;;;;;18.79;70.29;101079.09;4976151;28;102757;-49
2021/09/23 04:38:33;;;;;;;3.25;2.95;;;;;;;18.79;70.23;101073.59;4972293;28;104563;-51
2021/09/23 04:41:00;;;;;;;3.20;2.95;;;;;;;18.79;70.49;101079.09;4988501;28;102757;-49
2021/09/23 04:43:27;;;;;;;2.92;2.67;;;;;;;18.78;70.25;101071.94;4986834;28;103916;-49
2021/09/23 04:45:55;;;;;;;2.78;2.58;;;;;;;18.79;70.63;101068.06;4979777;28;106043;-49
2021/09/23 04:48:21;;;;;;;2.85;2.65;;;;;;;18.79;70.63;101079.09;4983981;28;102051;-49
2021/09/23 04:50:48;;;;;;;3.15;2.85;;;;;;;18.77;70.12;101075.81;4985225;28;102297;-48
2021/09/23 04:53:14;;;;;;;2.72;2.53;;;;;;;18.78;70.27;101069.19;4983390;28;108085;-48
2021/09/23 04:55:41;;;;;;;2.95;2.63;;;;;;;18.78;70.29;101080.19;4976430;28;102454;-48
2021/09/23 04:58:09;;;;;;;3.30;2.95;;;;;;;18.78;70.61;101077.44;4979867;28;102399;-48
2021/09/23 05:00:36;;;;;;;3.20;2.90;;;;;;;18.78;70.46;101085.72;4983278;28;103220;-48
2021/09/23 05:03:03;;;;;;;3.35;3.05;;;;;;;18.79;70.54;101090.13;4978476;28;103875;-48
2021/09/23 05:05:30;;;;;;;3.22;2.92;;;;;;;18.79;70.77;101089.28;4978091;28;104619;-48
2021/09/23 05:07:59;;;;;;;3.40;3.10;;;;;;;18.78;70.49;101088.47;4985845;28;102638;-48
2021/09/23 05:10:26;;;;;;;3.10;2.80;;;;;;;18.79;70.31;101090.13;4987569;28;102276;-48
2021/09/23 05:12:53;;;;;;;2.63;2.42;;;;;;;18.80;70.29;101085.41;4975705;28;104320;-48
2021/09/23 05:15:20;;;;;;;2.88;2.67;;;;;;;18.79;70.28;101090.13;4977026;28;102230;-48
2021/09/23 05:17:47;;;;;;;2.80;2.60;;;;;;;18.79;70.22;101090.13;4976388;28;102504;-47
2021/09/23 05:20:15;;;;;;;3.10;2.80;;;;;;;18.78;70.28;101088.47;4979229;28;102847;-47
2021/09/23 05:22:43;;;;;;;2.97;2.67;;;;;;;18.78;70.31;101105.03;4974013;28;102695;-47
2021/09/23 05:25:11;;;;;;;2.77;2.57;;;;;;;18.78;70.59;101094.00;4978975;28;103098;-47
2021/09/23 05:27:37;;;;;;;2.95;2.75;;;;;;;18.78;70.51;101099.50;4977507;28;102631;-47
2021/09/23 05:30:06;;;;;;;2.97;2.67;;;;;;;18.79;70.30;101098.41;4980509;28;104721;-47
2021/09/23 05:32:35;;;;;;;3.13;2.83;;;;;;;18.79;70.38;101105.81;4981957;28;104109;-49
2021/09/23 05:35:02;;;;;;;3.25;2.80;;;;;;;18.79;70.24;101100.31;4980823;28;103215;-48
2021/09/23 05:37:30;;;;;;;3.33;2.90;;;;;;;18.79;70.21;101095.63;4980991;28;102655;-47
2021/09/23 05:39:58;;;;;;;2.88;2.65;;;;;;;18.79;70.52;101101.16;4983335;28;102542;-47
2021/09/23 05:42:25;;;;;;;2.95;2.65;;;;;;;18.78;70.39;101096.75;4982759;28;103899;-47
2021/09/23 05:44:52;;;;;;;2.80;2.60;;;;;;;18.78;70.51;101102.25;4978570;28;102817;-47
2021/09/23 05:47:19;;;;;;;2.53;2.33;;;;;;;18.78;70.64;101105.03;4979592;28;103170;-47
2021/09/23 05:49:48;;;;;;;3.63;3.30;;;;;;;18.79;70.23;101094.81;4977824;28;102589;-48
2021/09/23 05:52:16;;;;;;;2.90;2.65;;;;;;;18.78;70.16;101099.50;4974130;28;105434;-48
2021/09/23 05:54:45;;;;;;;2.95;2.75;;;;;;;18.79;70.44;101106.66;4978107;28;102554;-47
2021/09/23 05:57:12;;;;;;;3.13;2.50;;;;;;;18.78;70.64;101107.78;4974936;28;102986;-48
2021/09/23 05:59:42;;;;;;;2.33;2.15;;;;;;;18.78;70.37;101110.53;4988547;28;102293;-47
2021/09/23 06:02:09;;;;;;;3.22;2.92;;;;;;;18.78;70.28;101110.53;4974374;28;108567;-47
2021/09/23 06:04:36;;;;;;;2.75;2.55;;;;;;;18.79;70.11;101116.84;4982167;28;102771;-47
2021/09/23 06:07:08;;;;;;;2.92;2.70;;;;;;;18.78;70.69;101113.28;4977076;28;102623;-47
2021/09/23 06:09:34;;;;;;;2.90;2.67;;;;;;;18.78;70.42;101116.06;4985980;28;102307;-49
2021/09/23 06:12:03;;;;;;;2.95;2.65;;;;;;;18.78;70.58;101116.06;4979654;28;104631;-50
2021/09/23 06:14:31;;;;;;;2.47;2.28;;;;;;;18.78;70.65;101115.25;4988217;28;102580;-50
2021/09/23 06:16:59;;;;;;;2.50;2.30;;;;;;;18.78;70.63;101118.81;4980234;28;103598;-51
2021/09/23 06:19:28;;;;;;;2.45;2.25;;;;;;;18.78;70.35;101120.75;4987762;28;102448;-49
2021/09/23 06:21:55;;;;;;;2.95;2.67;;;;;;;18.79;70.63;101127.88;4972621;28;103526;-50
2021/09/23 06:24:22;;;;;;;2.90;2.58;;;;;;;18.78;70.77;101127.06;4984695;28;102527;-49
2021/09/23 06:26:53;;;;;;;2.97;2.72;;;;;;;18.77;70.57;101122.69;4976474;28;102406;-49
2021/09/23 06:29:21;;;;;;;2.63;2.42;;;;;;;18.78;70.42;101126.28;4990663;28;102409;-49
2021/09/23 06:31:48;;;;;;;2.60;2.40;;;;;;;18.78;70.29;101121.56;4984241;28;103858;-49
2021/09/23 06:34:15;;;;;;;3.00;2.78;;;;;;;18.78;70.32;101121.56;4988474;28;102699;-50
2021/09/23 06:36:41;;;;;;;2.78;2.53;;;;;;;18.78;70.41;101127.06;4981621;28;102515;-49
2021/09/23 06:39:08;;;;;;;2.55;2.35;;;;;;;18.77;70.49;101119.94;4988689;28;103166;-49
2021/09/23 06:41:35;;;;;;;3.00;2.75;;;;;;;18.78;70.49;101126.28;4982701;28;104225;-49
2021/09/23 06:44:04;;;;;;;3.28;2.45;;;;;;;18.77;70.45;101122.69;4986412;28;102409;-49
2021/09/23 06:46:33;;;;;;;2.63;2.42;;;;;;;18.77;70.68;101119.13;4974931;28;102392;-49
2021/09/23 06:49:00;;;;;;;;;;;;;;;18.77;70.42;101114.44;4979174;28;102359;-50
2021/09/23 06:51:27;;;;;;;3.03;2.35;;;;;;;18.78;70.75;101109.72;4976347;28;103895;-49
2021/09/23 06:53:56;;;;;;;3.00;2.50;;;;;;;18.77;70.40;101114.44;4979064;28;102598;-49
2021/09/23 06:56:24;;;;;;;2.45;2.10;;;;;;;18.78;70.60;101112.47;4980685;28;103094;-51
2021/09/23 06:59:11;;;;;;;2.40;2.20;;;;;;;18.78;70.58;101115.25;4977409;28;102664;-50
2021/09/23 07:01:41;;;;;;;2.55;2.33;;;;;;;18.77;70.33;101111.66;4980679;28;103232;-50
2021/09/23 07:04:07;;;;;;;2.67;2.47;;;;;;;18.79;70.50;101111.34;4982612;28;102570;-49
2021/09/23 07:06:36;;;;;;;2.65;2.45;;;;;;;18.79;70.34;101111.34;4980195;28;102547;-49
2021/09/23 07:09:03;;;;;;;2.60;2.40;;;;;;;18.78;70.35;101116.06;4987275;28;102209;-51
2021/09/23 07:11:30;;;;;;;2.15;2.00;;;;;;;18.79;70.90;101114.94;4975711;28;103909;-51
2021/09/23 07:14:01;;;;;;;2.58;2.38;;;;;;;18.78;70.25;101110.53;4984358;28;102606;-50
2021/09/23 07:16:27;;;;;;;2.55;2.10;;;;;;;18.79;70.36;101123.22;4982895;28;102636;-49
2021/09/23 07:18:56;;;;;;;2.75;2.08;;;;;;;18.78;70.73;101121.56;4987274;28;102253;-49
2021/09/23 07:21:23;;;;;;;2.42;2.22;;;;;;;18.79;70.66;101123.22;4977850;28;103460;-49
2021/09/23 07:24:00;;;;;;;2.47;2.22;;;;;;;18.79;70.28;101130.66;4983360;28;102660;-49
2021/09/23 07:26:28;;;;;;;2.33;2.17;;;;;;;18.78;70.38;101127.06;5000530;28;102442;-50
2021/09/23 07:28:54;;;;;;;2.50;2.30;;;;;;;18.78;70.22;101126.28;4987381;28;102289;-52
2021/09/23 07:31:22;;;;;;;2.33;2.17;;;;;;;18.77;70.74;101119.94;4982847;28;103936;-51
2021/09/23 07:33:50;;;;;;;2.22;2.05;;;;;;;18.77;70.67;101119.94;4984637;28;102366;-50
2021/09/23 07:36:18;;;;;;;2.15;1.95;;;;;;;18.77;70.39;101117.19;4985593;28;102281;-52
2021/09/23 07:38:46;;;;;;;2.17;2.00;;;;;;;18.77;70.63;101119.94;4980696;28;102356;-50
2021/09/23 07:41:13;;;;;;;2.40;2.20;;;;;;;18.77;70.22;101119.94;4980220;28;103101;-49
2021/09/23 07:43:40;;;;;;;2.30;2.10;;;;;;;18.77;70.25;101125.47;4987517;28;102153;-50
2021/09/23 07:46:06;;;;;;;2.75;2.10;;;;;;;18.77;70.58;101119.94;4979149;28;102837;-52
2021/09/23 07:48:33;;;;;;;2.13;2.03;;;;;;;18.77;70.47;101125.47;4984707;28;102771;-50
2021/09/23 07:51:00;;;;;;;2.45;2.25;;;;;;;18.78;70.24;101118.81;4983198;28;103842;-50
2021/09/23 07:53:30;;;;;;;2.22;2.03;;;;;;;18.76;70.44;101118.31;4975020;28;102909;-51
2021/09/23 07:55:58;;;;;;;2.08;1.98;;;;;;;18.77;70.52;101124.66;4978085;28;102933;-49
2021/09/23 07:58:25;;;;;;;2.50;2.00;;;;;;;18.76;70.33;101118.31;4982609;28;102405;-49
2021/09/23 08:00:52;;;;;;;2.15;2.03;;;;;;;18.76;70.71;101110.06;4980492;28;105641;-49
2021/09/23 08:03:18;;;;;;;2.17;2.08;;;;;;;18.75;70.34;101111.16;4975875;28;102539;-49
2021/09/23 08:05:45;;;;;;;2.17;2.08;;;;;;;18.76;70.42;101112.81;4984936;28;102148;-49
2021/09/23 08:08:13;;;;;;;2.03;1.92;;;;;;;18.75;70.48;101113.91;4981218;28;102806;-49
2021/09/23 08:10:42;;;;;;;2.05;1.95;;;;;;;18.76;70.35;101117.50;4982751;28;103912;-49
2021/09/23 08:13:09;;;;;;;2.17;1.98;;;;;;;18.75;70.45;101122.19;4983288;28;102227;-50
2021/09/23 08:15:35;;;;;;;1.90;1.80;;;;;;;18.75;70.54;101115.88;4981623;28;102256;-50
2021/09/23 08:18:02;;;;;;;1.75;1.65;;;;;;;18.76;70.66;101123.84;4982853;28;103426;-46
2021/09/23 08:20:32;;;;;;;1.63;1.52;;;;;;;18.74;70.68;101123.34;4985835;28;104132;-46
2021/09/23 08:22:59;;;;;;;1.67;1.58;;;;;;;18.75;70.35;101124.94;4979040;28;102168;-47
2021/09/23 08:25:26;;;;;;;2.30;2.10;;;;;;;18.75;70.33;101122.19;4980399;28;106425;-48
2021/09/23 08:27:54;;;;;;;1.90;1.80;;;;;;;18.75;70.45;101121.38;4974647;28;102531;-48
2021/09/23 08:30:21;;;;;;;2.10;1.95;;;;;;;18.75;70.19;101124.13;4983322;28;103916;-47
2021/09/23 08:32:48;;;;;;;1.92;1.75;;;;;;;18.74;70.41;101128.84;4985174;28;102225;-47
2021/09/23 08:35:17;;;;;;;10.35;2.03;;;;;;;18.74;70.26;101123.34;4985819;28;102479;-47
2021/09/23 08:37:43;;;;;;;1.88;1.77;;;;;;;18.73;70.70;101118.97;4977791;28;102673;-47
2021/09/23 08:40:12;;;;;;;1.90;1.80;;;;;;;18.74;70.55;101123.34;4979673;28;103726;-50
2021/09/23 08:42:42;;;;;;;1.73;1.63;;;;;;;18.75;70.32;101124.94;4984543;28;102515;-47
2021/09/23 08:45:12;;;;;;;1.90;1.80;;;;;;;18.73;70.69;101125.28;4985659;28;102800;-48
2021/09/23 08:47:41;;;;;;;1.80;1.70;;;;;;;18.73;70.54;101121.72;4975463;28;102153;-47
2021/09/23 08:50:12;;;;;;;1.90;1.80;;;;;;;18.73;70.36;101118.97;4982510;28;104316;-48
2021/09/23 08:52:38;;;;;;;2.00;1.90;;;;;;;18.73;70.63;101117.00;4985642;28;102333;-47
2021/09/23 08:55:07;;;;;;;1.88;1.77;;;;;;;18.73;70.80;101118.97;4979017;28;102439;-48
2021/09/23 08:57:35;;;;;;;1.85;1.65;;;;;;;18.73;70.63;101125.28;4977698;28;102911;-47
2021/09/23 09:00:06;;;;;;;1.67;1.58;;;;;;;18.73;70.83;101119.75;4983216;28;104110;-47
2021/09/23 09:02:36;;;;;;;2.13;1.92;;;;;;;18.71;70.70;101116.50;4973708;28;102706;-47
2021/09/23 09:05:03;;;;;;;1.90;1.80;;;;;;;18.71;70.33;101121.19;4983095;28;102546;-47
2021/09/23 09:07:29;;;;;;;1.80;1.70;;;;;;;18.72;70.37;101122.84;4987783;28;102526;-47
2021/09/23 09:10:04;;;;;;;1.83;1.73;;;;;;;18.71;70.46;101116.50;4988371;28;102711;-47
2021/09/23 09:12:32;;;;;;;1.70;1.60;;;;;;;18.72;70.64;101122.84;4974242;28;102411;-47
2021/09/23 09:15:01;;;;;;;1.77;1.67;;;;;;;18.71;70.30;101115.69;4983208;28;102664;-47
2021/09/23 09:17:34;;;;;;;1.63;1.53;;;;;;;18.71;70.58;101121.19;4977055;28;102527;-48
2021/09/23 09:20:04;;;;;;;1.80;1.70;;;;;;;18.72;70.02;101131.13;4982379;28;104892;-48
2021/09/23 09:22:34;;;;;;;2.10;2.00;;;;;;;18.72;70.82;101122.84;4975397;28;102439;-47
2021/09/23 09:25:04;;;;;;;1.45;1.35;;;;;;;18.70;70.51;101119.56;4985079;28;103333;-47
2021/09/23 09:27:33;;;;;;;1.88;1.77;;;;;;;18.70;70.71;101120.34;4977353;28;102430;-47
2021/09/23 09:30:07;;;;;;;1.60;1.50;;;;;;;18.71;70.29;101121.19;4983477;28;103847;-47
2021/09/23 09:32:45;;;;;;;1.58;1.48;;;;;;;18.70;70.55;101130.56;4976445;28;102682;-47
2021/09/23 09:35:16;;;;;;;1.70;1.60;;;;;;;18.70;70.56;101119.56;4982202;28;102768;-49
2021/09/23 09:37:45;;;;;;;1.55;1.45;;;;;;;18.69;70.52;101124.25;4975903;28;103569;-47
2021/09/23 09:40:15;;;;;;;1.77;1.60;;;;;;;18.70;70.41;101130.56;4985317;28;104001;-46
2021/09/23 09:42:44;;;;;;;1.80;1.70;;;;;;;18.71;70.49;101132.22;4975825;28;102679;-48
2021/09/23 09:45:19;;;;;;;1.65;1.55;;;;;;;18.70;70.33;101130.56;4983622;28;102625;-47
2021/09/23 09:47:52;;;;;;;1.80;1.70;;;;;;;18.69;70.38;101134.47;4989237;28;102572;-47
2021/09/23 09:50:23;;;;;;;1.63;1.52;;;;;;;18.70;70.77;101130.56;4986625;28;102517;-46
2021/09/23 09:52:51;;;;;;;1.52;1.42;;;;;;;18.69;70.31;101137.22;4978645;28;102533;-47
2021/09/23 09:55:21;;;;;;;1.57;1.47;;;;;;;18.70;70.11;101138.84;4972248;28;102814;-48
2021/09/23 09:57:49;;;;;;;1.80;1.70;;;;;;;18.71;70.70;101137.75;4987399;28;102812;-47
2021/09/23 10:00:17;;;;;;;1.23;1.13;;;;;;;18.70;70.40;101141.59;4974335;28;104145;-47
2021/09/23 10:02:47;;;;;;;1.80;1.70;;;;;;;18.70;70.25;101141.59;4987278;28;102112;-48
2021/09/23 10:05:16;;;;;;;1.77;1.60;;;;;;;18.70;70.56;101139.66;4984786;28;102551;-47
2021/09/23 10:07:47;;;;;;;1.73;1.63;;;;;;;18.71;70.49;101129.47;4983058;28;103248;-47
2021/09/23 10:10:16;;;;;;;1.70;1.60;;;;;;;18.71;70.66;101121.19;4980628;28;103694;-48
2021/09/23 10:12:44;;;;;;;1.65;1.55;;;;;;;18.71;70.33;101121.19;4988622;28;102520;-47
2021/09/23 10:15:15;;;;;;;;;;;;;;;18.70;70.86;101119.56;4980543;28;102180;-47
2021/09/23 10:17:42;;;;;;;1.50;1.40;;;;;;;18.70;70.86;101120.34;4984418;28;102085;-53
2021/09/23 10:20:10;;;;;;;1.77;1.67;;;;;;;18.70;70.41;101125.06;4987722;28;103938;-47
2021/09/23 10:22:40;;;;;;;1.55;1.45;;;;;;;18.71;70.30;101126.72;4979269;28;102686;-48
2021/09/23 10:25:13;;;;;;;1.42;1.33;;;;;;;18.70;70.90;101125.06;4981348;28;102620;-49
2021/09/23 10:30:31;;;;;;;1.38;1.27;;;;;;;18.70;70.55;101130.56;4985908;28;103987;-47
2021/09/23 10:32:59;;;;;;;1.50;1.40;;;;;;;18.70;70.46;101128.63;4983189;28;102465;-47
2021/09/23 10:35:27;;;;;;;1.50;1.40;;;;;;;18.71;70.56;101126.72;4983707;28;102093;-48
2021/09/23 10:38:00;;;;;;;1.67;1.58;;;;;;;18.70;70.65;101125.88;4982348;28;102335;-48
2021/09/23 10:40:32;;;;;;;1.67;1.58;;;;;;;18.70;70.54;101127.81;4984611;28;103606;-47
2021/09/23 10:43:03;;;;;;;1.77;1.67;;;;;;;18.70;70.66;101122.31;4974910;28;102438;-48
2021/09/23 10:45:35;;;;;;;1.40;1.30;;;;;;;18.70;70.35;101130.56;4986146;28;102056;-47
2021/09/23 10:48:04;;;;;;;1.60;1.45;;;;;;;18.69;70.87;101123.44;4984133;28;102563;-48
2021/09/23 10:50:33;;;;;;;1.20;1.10;;;;;;;18.70;70.21;101133.34;4987033;28;103100;-47
2021/09/23 10:53:01;;;;;;;1.55;1.45;;;;;;;18.69;70.87;101132.53;4984158;28;102040;-48
2021/09/23 10:55:35;;;;;;;1.60;1.50;;;;;;;18.69;70.57;101129.78;4985275;28;102707;-47
2021/09/23 10:58:04;;;;;;;1.88;1.70;;;;;;;18.69;70.48;101134.47;4975386;28;102563;-49
2021/09/23 11:00:33;;;;;;;1.60;1.50;;;;;;;18.69;70.42;101128.97;4977397;28;104119;-47
2021/09/23 11:03:04;;;;;;;1.60;1.50;;;;;;;18.69;70.37;101134.47;4979262;28;102554;-48
2021/09/23 11:05:31;;;;;;;1.40;1.30;;;;;;;18.69;70.55;101131.72;4971778;28;102875;-47
2021/09/23 11:08:00;;;;;;;1.50;1.40;;;;;;;18.68;70.18;101133.66;4975096;28;102898;-48
2021/09/23 11:10:30;;;;;;;1.60;1.50;;;;;;;18.69;70.64;101134.47;4986919;28;103840;-48
2021/09/23 11:13:00;;;;;;;1.80;1.60;;;;;;;18.68;70.42;101133.66;4985299;28;102251;-48
2021/09/23 11:15:29;;;;;;;1.70;1.60;;;;;;;18.68;70.51;101138.34;4992249;28;102698;-47
2021/09/23 11:18:00;;;;;;;2.15;1.48;;;;;;;18.67;70.65;101137.53;4984305;28;102477;-48
2021/09/23 11:20:31;;;;;;;2.45;1.40;;;;;;;18.68;70.28;101135.59;4983378;28;103736;-47
2021/09/23 11:23:00;;;;;;;1.58;1.48;;;;;;;18.68;70.67;101135.59;4979468;28;102165;-48
2021/09/23 11:25:34;;;;;;;2.35;1.42;;;;;;;18.68;70.43;101143.84;4981812;28;104160;-48
2021/09/23 11:28:02;;;;;;;1.48;1.38;;;;;;;18.68;70.48;101143.84;4986445;28;102334;-48